PWSweather.com
Personal Weather Stations
Station Observations
PENICUIKWS
PenicuikGB

PenicuikGB

Lat: 55.830932, Lon: -3.224533000000065

Elevation: 166

Station Type: Fine Offset

http://weather.penicuik.org

High Low Average
Temperature 43.3°F6.3°C 30.7°F-0.7°C 34.4°F1.3°C
Dew Point 33.1°F0.6°C 27.1°F-2.7°C 29.1°F-1.6°C
Winds 6.2 mph 10.0 kmh 0.4 mph 0.6 kmh 3.0 mph SW4.8 kmh SW
Wind Gusts 9.8 mph15.8 kmh 1.6 mph2.6 kmh 5.0 mph8.0 kmh
Humidity 87% 64% 81%
Pressure 29.44 in997.0 mb 29.05 in983.7 mb -
Precipitation 0.00 in0.0 mm - -
Hour Temp Dew Point Humidity Winds Wind Gusts Pressure Precip Precip Rate Daily Precip Total
12:00 AM 30.7°F-0.7°C 27.3°F-2.6°C 87% 1.2 mph N1.9 kmh N 2.2 mph3.5 kmh 29.06 in984.1 mb 0.00 in0.0 mm 0.00 in0.0 mm 0.00 in0.0 mm
12:15 AM 30.9°F-0.6°C 27.5°F-2.5°C 87% 0.9 mph NNW1.4 kmh NNW 1.6 mph2.6 kmh 29.05 in983.7 mb 0.00 in0.0 mm 0.00 in0.0 mm 0.00 in0.0 mm
12:30 AM 31.1°F-0.5°C 27.7°F-2.4°C 87% 1.0 mph N1.6 kmh N 1.6 mph2.6 kmh 29.08 in984.8 mb 0.00 in0.0 mm 0.00 in0.0 mm 0.00 in0.0 mm
12:45 AM 30.7°F-0.7°C 27.3°F-2.6°C 87% 1.6 mph N2.6 kmh N 3.1 mph5.0 kmh 29.07 in984.4 mb 0.00 in0.0 mm 0.00 in0.0 mm 0.00 in0.0 mm
01:00 AM 30.7°F-0.7°C 27.3°F-2.6°C 87% 2.0 mph W3.2 kmh W 3.1 mph5.0 kmh 29.08 in984.8 mb 0.00 in0.0 mm 0.00 in0.0 mm 0.00 in0.0 mm
01:15 AM 30.7°F-0.7°C 27.3°F-2.6°C 87% 2.8 mph N4.5 kmh N 4.5 mph7.2 kmh 29.08 in984.8 mb 0.00 in0.0 mm 0.00 in0.0 mm 0.00 in0.0 mm
01:30 AM 30.7°F-0.7°C 27.3°F-2.6°C 87% 2.2 mph N3.5 kmh N 3.8 mph6.1 kmh 29.09 in985.1 mb 0.00 in0.0 mm 0.00 in0.0 mm 0.00 in0.0 mm
01:45 AM 30.7°F-0.7°C 27.3°F-2.6°C 87% 2.0 mph N3.2 kmh N 3.1 mph5.0 kmh 29.09 in985.1 mb 0.00 in0.0 mm 0.00 in0.0 mm 0.00 in0.0 mm
02:00 AM 30.9°F-0.6°C 27.5°F-2.5°C 87% 2.6 mph N4.2 kmh N 3.8 mph6.1 kmh 29.11 in985.8 mb 0.00 in0.0 mm 0.00 in0.0 mm 0.00 in0.0 mm
02:15 AM 31.1°F-0.5°C 27.7°F-2.4°C 87% 2.1 mph N3.4 kmh N 3.8 mph6.1 kmh 29.11 in985.8 mb 0.00 in0.0 mm 0.00 in0.0 mm 0.00 in0.0 mm
02:30 AM 31.1°F-0.5°C 27.4°F-2.6°C 86% 2.1 mph W3.4 kmh W 3.1 mph5.0 kmh 29.12 in986.1 mb 0.00 in0.0 mm 0.00 in0.0 mm 0.00 in0.0 mm
02:45 AM 31.3°F-0.4°C 27.6°F-2.4°C 86% 2.2 mph NNE3.5 kmh NNE 3.1 mph5.0 kmh 29.13 in986.5 mb 0.00 in0.0 mm 0.00 in0.0 mm 0.00 in0.0 mm
03:00 AM 31.3°F-0.4°C 27.6°F-2.4°C 86% 2.2 mph NNW3.5 kmh NNW 4.5 mph7.2 kmh 29.14 in986.8 mb 0.00 in0.0 mm 0.00 in0.0 mm 0.00 in0.0 mm
03:15 AM 32.0°F0.0°C 28.0°F-2.2°C 85% 2.5 mph NW4.0 kmh NW 3.8 mph6.1 kmh 29.14 in986.8 mb 0.00 in0.0 mm 0.00 in0.0 mm 0.00 in0.0 mm
03:30 AM 32.2°F0.1°C 28.2°F-2.1°C 85% 1.9 mph NE3.1 kmh NE 2.2 mph3.5 kmh 29.14 in986.8 mb 0.00 in0.0 mm 0.00 in0.0 mm 0.00 in0.0 mm
03:45 AM 32.5°F0.3°C 28.5°F-1.9°C 85% 2.1 mph NNE3.4 kmh NNE 3.8 mph6.1 kmh 29.14 in986.8 mb 0.00 in0.0 mm 0.00 in0.0 mm 0.00 in0.0 mm
04:00 AM 32.7°F0.4°C 28.7°F-1.8°C 85% 3.2 mph NE5.1 kmh NE 5.4 mph8.7 kmh 29.16 in987.5 mb 0.00 in0.0 mm 0.00 in0.0 mm 0.00 in0.0 mm
04:15 AM 32.5°F0.3°C 28.5°F-1.9°C 85% 2.0 mph N3.2 kmh N 3.8 mph6.1 kmh 29.17 in987.8 mb 0.00 in0.0 mm 0.00 in0.0 mm 0.00 in0.0 mm
04:30 AM 32.7°F0.4°C 28.7°F-1.8°C 85% 2.2 mph N3.5 kmh N 3.1 mph5.0 kmh 29.19 in988.5 mb 0.00 in0.0 mm 0.00 in0.0 mm 0.00 in0.0 mm
05:00 AM 33.4°F0.8°C 29.1°F-1.6°C 84% 1.9 mph N3.1 kmh N 3.1 mph5.0 kmh 29.21 in989.2 mb 0.00 in0.0 mm 0.00 in0.0 mm 0.00 in0.0 mm
05:15 AM 33.3°F0.7°C 29.0°F-1.7°C 84% 2.3 mph E3.7 kmh E 3.1 mph5.0 kmh 29.23 in989.8 mb 0.00 in0.0 mm 0.00 in0.0 mm 0.00 in0.0 mm
05:30 AM 32.9°F0.5°C 28.3°F-2.1°C 83% 2.7 mph N4.3 kmh N 3.8 mph6.1 kmh 29.25 in990.5 mb 0.00 in0.0 mm 0.00 in0.0 mm 0.00 in0.0 mm
05:45 AM 32.5°F0.3°C 28.0°F-2.2°C 83% 1.8 mph N2.9 kmh N 2.2 mph3.5 kmh 29.26 in990.9 mb 0.00 in0.0 mm 0.00 in0.0 mm 0.00 in0.0 mm
06:00 AM 32.5°F0.3°C 28.0°F-2.2°C 83% 2.1 mph N3.4 kmh N 3.8 mph6.1 kmh 29.27 in991.2 mb 0.00 in0.0 mm 0.00 in0.0 mm 0.00 in0.0 mm
06:15 AM 32.5°F0.3°C 28.0°F-2.2°C 83% 2.2 mph N3.5 kmh N 3.8 mph6.1 kmh 29.29 in991.9 mb 0.00 in0.0 mm 0.00 in0.0 mm 0.00 in0.0 mm
06:30 AM 32.5°F0.3°C 28.0°F-2.2°C 83% 2.7 mph NE4.3 kmh NE 6.9 mph11.1 kmh 29.29 in991.9 mb 0.00 in0.0 mm 0.00 in0.0 mm 0.00 in0.0 mm
06:45 AM 32.7°F0.4°C 28.1°F-2.2°C 83% 2.6 mph N4.2 kmh N 5.4 mph8.7 kmh 29.31 in992.6 mb 0.00 in0.0 mm 0.00 in0.0 mm 0.00 in0.0 mm
07:00 AM 32.7°F0.4°C 27.9°F-2.3°C 82% 1.8 mph NW2.9 kmh NW 2.2 mph3.5 kmh 29.32 in992.9 mb 0.00 in0.0 mm 0.00 in0.0 mm 0.00 in0.0 mm
07:15 AM 32.7°F0.4°C 27.6°F-2.4°C 81% 2.3 mph NNE3.7 kmh NNE 5.4 mph8.7 kmh 29.33 in993.2 mb 0.00 in0.0 mm 0.00 in0.0 mm 0.00 in0.0 mm
07:30 AM 32.7°F0.4°C 27.6°F-2.4°C 81% 3.3 mph NW5.3 kmh NW 3.8 mph6.1 kmh 29.34 in993.6 mb 0.00 in0.0 mm 0.00 in0.0 mm 0.00 in0.0 mm
07:45 AM 32.9°F0.5°C 27.7°F-2.4°C 81% 3.1 mph WNW5.0 kmh WNW 4.5 mph7.2 kmh 29.34 in993.6 mb 0.00 in0.0 mm 0.00 in0.0 mm 0.00 in0.0 mm
08:00 AM 33.3°F0.7°C 27.8°F-2.3°C 80% 2.5 mph N4.0 kmh N 4.5 mph7.2 kmh 29.34 in993.6 mb 0.00 in0.0 mm 0.00 in0.0 mm 0.00 in0.0 mm
08:15 AM 33.1°F0.6°C 27.6°F-2.4°C 80% 1.0 mph NNE1.6 kmh NNE 1.6 mph2.6 kmh 29.36 in994.2 mb 0.00 in0.0 mm 0.00 in0.0 mm 0.00 in0.0 mm
08:30 AM 32.5°F0.3°C 27.1°F-2.7°C 80% 1.3 mph N2.1 kmh N 2.2 mph3.5 kmh 29.37 in994.6 mb 0.00 in0.0 mm 0.00 in0.0 mm 0.00 in0.0 mm
08:45 AM 32.9°F0.5°C 27.4°F-2.6°C 80% 3.0 mph NNE4.8 kmh NNE 4.5 mph7.2 kmh 29.38 in994.9 mb 0.00 in0.0 mm 0.00 in0.0 mm 0.00 in0.0 mm
09:00 AM 33.3°F0.7°C 28.1°F-2.2°C 81% 3.5 mph N5.6 kmh N 5.4 mph8.7 kmh 29.38 in994.9 mb 0.00 in0.0 mm 0.00 in0.0 mm 0.00 in0.0 mm
09:15 AM 33.6°F0.9°C 28.7°F-1.8°C 82% 2.7 mph N4.3 kmh N 5.4 mph8.7 kmh 29.38 in994.9 mb 0.00 in0.0 mm 0.00 in0.0 mm 0.00 in0.0 mm
09:30 AM 34.0°F1.1°C 28.8°F-1.8°C 81% 3.2 mph WNW5.1 kmh WNW 4.5 mph7.2 kmh 29.38 in994.9 mb 0.00 in0.0 mm 0.00 in0.0 mm 0.00 in0.0 mm
09:45 AM 34.7°F1.5°C 29.5°F-1.4°C 81% 1.9 mph NNW3.1 kmh NNW 3.1 mph5.0 kmh 29.39 in995.3 mb 0.00 in0.0 mm 0.00 in0.0 mm 0.00 in0.0 mm
10:15 AM 39.0°F3.9°C 33.1°F0.6°C 79% 4.5 mph NNE7.2 kmh NNE 6.9 mph11.1 kmh 29.41 in995.9 mb 0.00 in0.0 mm 0.00 in0.0 mm 0.00 in0.0 mm
10:30 AM 40.3°F4.6°C 31.6°F-0.2°C 71% 5.7 mph W9.2 kmh W 7.6 mph12.2 kmh 29.41 in995.9 mb 0.00 in0.0 mm 0.00 in0.0 mm 0.00 in0.0 mm
10:45 AM 41.5°F5.3°C 31.4°F-0.3°C 67% 4.7 mph SW7.6 kmh SW 7.6 mph12.2 kmh 29.42 in996.3 mb 0.00 in0.0 mm 0.00 in0.0 mm 0.00 in0.0 mm
11:00 AM 43.3°F6.3°C 32.0°F0.0°C 64% 4.9 mph SW7.9 kmh SW 9.8 mph15.8 kmh 29.41 in995.9 mb 0.00 in0.0 mm 0.00 in0.0 mm 0.00 in0.0 mm
11:30 AM 41.5°F5.3°C 30.3°F-0.9°C 64% 4.4 mph SSW7.1 kmh SSW 7.6 mph12.2 kmh 29.42 in996.3 mb 0.00 in0.0 mm 0.00 in0.0 mm 0.00 in0.0 mm
11:45 AM 41.7°F5.4°C 32.0°F0.0°C 68% 5.0 mph SW8.0 kmh SW 8.3 mph13.4 kmh 29.42 in996.3 mb 0.00 in0.0 mm 0.00 in0.0 mm 0.00 in0.0 mm
12:00 PM 40.1°F4.5°C 30.0°F-1.1°C 67% 4.2 mph WSW6.8 kmh WSW 7.6 mph12.2 kmh 29.42 in996.3 mb 0.00 in0.0 mm 0.00 in0.0 mm 0.00 in0.0 mm
12:15 PM 38.7°F3.7°C 31.4°F-0.3°C 75% 5.0 mph WSW8.0 kmh WSW 6.9 mph11.1 kmh 29.43 in996.6 mb 0.00 in0.0 mm 0.00 in0.0 mm 0.00 in0.0 mm
12:30 PM 38.5°F3.6°C 31.9°F-0.1°C 77% 3.5 mph NW5.6 kmh NW 6.9 mph11.1 kmh 29.43 in996.6 mb 0.00 in0.0 mm 0.00 in0.0 mm 0.00 in0.0 mm
12:45 PM 38.8°F3.8°C 32.3°F0.2°C 77% 4.2 mph S6.8 kmh S 6.9 mph11.1 kmh 29.43 in996.6 mb 0.00 in0.0 mm 0.00 in0.0 mm 0.00 in0.0 mm
01:00 PM 37.2°F2.9°C 29.7°F-1.3°C 74% 2.9 mph W4.7 kmh W 5.4 mph8.7 kmh 29.43 in996.6 mb 0.00 in0.0 mm 0.00 in0.0 mm 0.00 in0.0 mm
01:15 PM 37.0°F2.8°C 30.5°F-0.8°C 77% 4.8 mph WSW7.7 kmh WSW 8.3 mph13.4 kmh 29.43 in996.6 mb 0.00 in0.0 mm 0.00 in0.0 mm 0.00 in0.0 mm
01:30 PM 36.7°F2.6°C 30.5°F-0.8°C 78% 5.4 mph SW8.7 kmh SW 7.6 mph12.2 kmh 29.42 in996.3 mb 0.00 in0.0 mm 0.00 in0.0 mm 0.00 in0.0 mm
01:45 PM 36.5°F2.5°C 30.3°F-0.9°C 78% 3.9 mph S6.3 kmh S 5.4 mph8.7 kmh 29.43 in996.6 mb 0.00 in0.0 mm 0.00 in0.0 mm 0.00 in0.0 mm
02:00 PM 36.5°F2.5°C 30.3°F-0.9°C 78% 6.0 mph S9.7 kmh S 9.8 mph15.8 kmh 29.42 in996.3 mb 0.00 in0.0 mm 0.00 in0.0 mm 0.00 in0.0 mm
02:15 PM 36.7°F2.6°C 30.2°F-1.0°C 77% 4.1 mph S6.6 kmh S 6.9 mph11.1 kmh 29.43 in996.6 mb 0.00 in0.0 mm 0.00 in0.0 mm 0.00 in0.0 mm
02:30 PM 36.7°F2.6°C 29.5°F-1.4°C 75% 6.2 mph SSW10.0 kmh SSW 9.8 mph15.8 kmh 29.43 in996.6 mb 0.00 in0.0 mm 0.00 in0.0 mm 0.00 in0.0 mm
02:45 PM 36.1°F2.3°C 29.0°F-1.7°C 75% 5.4 mph SSW8.7 kmh SSW 9.2 mph14.8 kmh 29.43 in996.6 mb 0.00 in0.0 mm 0.00 in0.0 mm 0.00 in0.0 mm
03:00 PM 36.0°F2.2°C 29.5°F-1.4°C 77% 5.1 mph S8.2 kmh S 7.6 mph12.2 kmh 29.43 in996.6 mb 0.00 in0.0 mm 0.00 in0.0 mm 0.00 in0.0 mm
03:15 PM 36.0°F2.2°C 29.5°F-1.4°C 77% 5.3 mph WSW8.5 kmh WSW 7.6 mph12.2 kmh 29.43 in996.6 mb 0.00 in0.0 mm 0.00 in0.0 mm 0.00 in0.0 mm
03:30 PM 35.8°F2.1°C 29.3°F-1.5°C 77% 3.9 mph ENE6.3 kmh ENE 6.0 mph9.7 kmh 29.43 in996.6 mb 0.00 in0.0 mm 0.00 in0.0 mm 0.00 in0.0 mm
03:45 PM 35.4°F1.9°C 28.9°F-1.7°C 77% 4.5 mph S7.2 kmh S 8.3 mph13.4 kmh 29.44 in997.0 mb 0.00 in0.0 mm 0.00 in0.0 mm 0.00 in0.0 mm
04:00 PM 35.6°F2.0°C 28.5°F-1.9°C 75% 5.4 mph WNW8.7 kmh WNW 9.2 mph14.8 kmh 29.44 in997.0 mb 0.00 in0.0 mm 0.00 in0.0 mm 0.00 in0.0 mm
04:15 PM 35.6°F2.0°C 28.5°F-1.9°C 75% 4.3 mph SSW6.9 kmh SSW 7.6 mph12.2 kmh 29.44 in997.0 mb 0.00 in0.0 mm 0.00 in0.0 mm 0.00 in0.0 mm
04:30 PM 35.6°F2.0°C 28.5°F-1.9°C 75% 4.9 mph SSW7.9 kmh SSW 8.3 mph13.4 kmh 29.43 in996.6 mb 0.00 in0.0 mm 0.00 in0.0 mm 0.00 in0.0 mm
04:45 PM 35.8°F2.1°C 29.0°F-1.7°C 76% 5.2 mph SSW8.4 kmh SSW 9.8 mph15.8 kmh 29.43 in996.6 mb 0.00 in0.0 mm 0.00 in0.0 mm 0.00 in0.0 mm
05:00 PM 35.6°F2.0°C 28.1°F-2.2°C 74% 2.6 mph S4.2 kmh S 3.8 mph6.1 kmh 29.43 in996.6 mb 0.00 in0.0 mm 0.00 in0.0 mm 0.00 in0.0 mm
05:15 PM 34.9°F1.6°C 28.1°F-2.2°C 76% 1.9 mph S3.1 kmh S 3.1 mph5.0 kmh 29.42 in996.3 mb 0.00 in0.0 mm 0.00 in0.0 mm 0.00 in0.0 mm
05:30 PM 33.6°F0.9°C 27.2°F-2.7°C 77% 1.6 mph SW2.6 kmh SW 2.2 mph3.5 kmh 29.43 in996.6 mb 0.00 in0.0 mm 0.00 in0.0 mm 0.00 in0.0 mm
06:00 PM 32.7°F0.4°C 27.6°F-2.4°C 81% 2.0 mph NW3.2 kmh NW 4.5 mph7.2 kmh 29.42 in996.3 mb 0.00 in0.0 mm 0.00 in0.0 mm 0.00 in0.0 mm
06:15 PM 32.7°F0.4°C 27.9°F-2.3°C 82% 2.2 mph W3.5 kmh W 4.5 mph7.2 kmh 29.41 in995.9 mb 0.00 in0.0 mm 0.00 in0.0 mm 0.00 in0.0 mm
06:30 PM 33.3°F0.7°C 28.7°F-1.8°C 83% 2.1 mph WSW3.4 kmh WSW 5.4 mph8.7 kmh 29.41 in995.9 mb 0.00 in0.0 mm 0.00 in0.0 mm 0.00 in0.0 mm
06:45 PM 32.9°F0.5°C 28.3°F-2.1°C 83% 0.8 mph NW1.3 kmh NW 2.2 mph3.5 kmh 29.40 in995.6 mb 0.00 in0.0 mm 0.00 in0.0 mm 0.00 in0.0 mm
07:00 PM 32.9°F0.5°C 28.6°F-1.9°C 84% 2.2 mph WSW3.5 kmh WSW 3.8 mph6.1 kmh 29.39 in995.3 mb 0.00 in0.0 mm 0.00 in0.0 mm 0.00 in0.0 mm
07:15 PM 33.3°F0.7°C 29.0°F-1.7°C 84% 2.2 mph WSW3.5 kmh WSW 3.8 mph6.1 kmh 29.38 in994.9 mb 0.00 in0.0 mm 0.00 in0.0 mm 0.00 in0.0 mm
07:30 PM 34.0°F1.1°C 29.7°F-1.3°C 84% 2.6 mph SW4.2 kmh SW 4.5 mph7.2 kmh 29.39 in995.3 mb 0.00 in0.0 mm 0.00 in0.0 mm 0.00 in0.0 mm
07:45 PM 34.5°F1.4°C 30.5°F-0.8°C 85% 1.8 mph NW2.9 kmh NW 4.5 mph7.2 kmh 29.37 in994.6 mb 0.00 in0.0 mm 0.00 in0.0 mm 0.00 in0.0 mm
08:00 PM 34.3°F1.3°C 30.3°F-0.9°C 85% 1.9 mph NNW3.1 kmh NNW 3.1 mph5.0 kmh 29.36 in994.2 mb 0.00 in0.0 mm 0.00 in0.0 mm 0.00 in0.0 mm
08:30 PM 34.2°F1.2°C 30.1°F-1.1°C 85% 1.2 mph NW1.9 kmh NW 3.1 mph5.0 kmh 29.35 in993.9 mb 0.00 in0.0 mm 0.00 in0.0 mm 0.00 in0.0 mm
08:45 PM 34.3°F1.3°C 30.3°F-0.9°C 85% 1.6 mph SSW2.6 kmh SSW 3.8 mph6.1 kmh 29.34 in993.6 mb 0.00 in0.0 mm 0.00 in0.0 mm 0.00 in0.0 mm
09:00 PM 34.5°F1.4°C 30.5°F-0.8°C 85% 2.0 mph NW3.2 kmh NW 3.8 mph6.1 kmh 29.33 in993.2 mb 0.00 in0.0 mm 0.00 in0.0 mm 0.00 in0.0 mm
09:15 PM 34.9°F1.6°C 30.8°F-0.7°C 85% 0.6 mph NNW1.0 kmh NNW 1.6 mph2.6 kmh 29.32 in992.9 mb 0.00 in0.0 mm 0.00 in0.0 mm 0.00 in0.0 mm
09:30 PM 34.5°F1.4°C 30.2°F-1.0°C 84% 0.6 mph W1.0 kmh W 1.6 mph2.6 kmh 29.31 in992.6 mb 0.00 in0.0 mm 0.00 in0.0 mm 0.00 in0.0 mm
09:45 PM 34.3°F1.3°C 30.0°F-1.1°C 84% 1.2 mph W1.9 kmh W 3.1 mph5.0 kmh 29.30 in992.2 mb 0.00 in0.0 mm 0.00 in0.0 mm 0.00 in0.0 mm
10:15 PM 34.5°F1.4°C 30.2°F-1.0°C 84% 0.8 mph W1.3 kmh W 1.6 mph2.6 kmh 29.28 in991.5 mb 0.00 in0.0 mm 0.00 in0.0 mm 0.00 in0.0 mm
10:30 PM 34.3°F1.3°C 30.0°F-1.1°C 84% 1.6 mph WNW2.6 kmh WNW 3.1 mph5.0 kmh 29.26 in990.9 mb 0.00 in0.0 mm 0.00 in0.0 mm 0.00 in0.0 mm
10:45 PM 34.3°F1.3°C 30.0°F-1.1°C 84% 0.9 mph WSW1.4 kmh WSW 1.6 mph2.6 kmh 29.26 in990.9 mb 0.00 in0.0 mm 0.00 in0.0 mm 0.00 in0.0 mm
11:00 PM 34.5°F1.4°C 30.5°F-0.8°C 85% 2.3 mph W3.7 kmh W 5.4 mph8.7 kmh 29.25 in990.5 mb 0.00 in0.0 mm 0.00 in0.0 mm 0.00 in0.0 mm
11:15 PM 34.5°F1.4°C 30.5°F-0.8°C 85% 1.9 mph NW3.1 kmh NW 3.1 mph5.0 kmh 29.24 in990.2 mb 0.00 in0.0 mm 0.00 in0.0 mm 0.00 in0.0 mm
11:30 PM 34.5°F1.4°C 30.5°F-0.8°C 85% 1.1 mph WSW1.8 kmh WSW 3.1 mph5.0 kmh 29.23 in989.8 mb 0.00 in0.0 mm 0.00 in0.0 mm 0.00 in0.0 mm
11:45 PM 34.3°F1.3°C 30.3°F-0.9°C 85% 0.4 mph WSW0.6 kmh WSW 2.2 mph3.5 kmh 29.22 in989.5 mb 0.00 in0.0 mm 0.00 in0.0 mm 0.00 in0.0 mm